Time;durP1;ratioP1;P1;durP2;ratioP2;P2;SDS_P1;SDS_P2;PMS_P1;PMS_P2;Temp;Humidity;BMP_temperature;BMP_pressure;BME280_temperature;BME280_humidity;BME280_pressure;Samples;Min_cycle;Max_cycle;Signal;HPM_P1;HPM_P2
2023/02/05 00:00:20;;;;;;;14.75;6.50;;;8.30;99.90;;;7.42;94.43;103810.78;4203464;28;20021;-78
2023/02/05 00:02:21;;;;;;;8.00;5.70;;;8.30;99.90;;;7.45;94.05;103810.66;4202286;28;20043;-78
2023/02/05 00:04:22;;;;;;;10.52;6.18;;;8.30;99.90;;;7.39;94.15;103796.91;4202309;28;20016;-79
2023/02/05 00:06:23;;;;;;;10.63;7.18;;;8.30;99.90;;;7.38;94.66;103797.84;4202025;28;20024;-78
2023/02/05 00:08:26;;;;;;;9.85;5.90;;;8.30;99.90;;;7.38;94.77;103806.56;4203781;28;20032;-78
2023/02/05 00:10:27;;;;;;;11.30;5.97;;;8.30;99.90;;;7.39;95.05;103800.41;4201893;28;20032;-78
2023/02/05 00:12:28;;;;;;;13.35;5.30;;;8.30;99.90;;;7.42;95.03;103812.56;4202029;28;20033;-78
2023/02/05 00:14:29;;;;;;;8.27;5.72;;;8.30;99.90;;;7.47;94.97;103807.97;4202039;28;20037;-78
2023/02/05 00:16:29;;;;;;;10.30;5.60;;;8.30;99.90;;;7.47;94.75;103800.94;4218683;28;20552;-78
2023/02/05 00:18:30;;;;;;;10.27;5.65;;;8.30;99.90;;;7.41;95.11;103803.81;4203464;28;20039;-78
2023/02/05 00:20:31;;;;;;;9.35;6.15;;;8.30;99.90;;;7.38;94.95;103797.84;4203010;28;20028;-78
2023/02/05 00:22:32;;;;;;;11.73;6.53;;;8.30;99.90;;;7.36;95.75;103794.41;4201752;28;20454;-78
2023/02/05 00:24:33;;;;;;;11.35;6.53;;;8.30;99.90;;;7.33;96.12;103784.88;4202003;28;20084;-78
2023/02/05 00:26:34;;;;;;;11.95;6.95;;;8.30;99.90;;;7.39;95.78;103800.41;4202117;28;20486;-79
2023/02/05 00:28:36;;;;;;;13.43;7.28;;;8.30;99.90;;;7.34;96.11;103780.50;4201790;28;20087;-78
2023/02/05 00:30:40;;;;;;;15.88;6.72;;;8.30;99.90;;;7.40;96.33;103783.75;4185250;28;20025;-78
2023/02/05 00:32:40;;;;;;;12.68;7.45;;;8.30;99.90;;;7.37;95.68;103778.63;4202884;28;20037;-78
2023/02/05 00:34:41;;;;;;;14.65;7.57;;;8.30;99.90;;;7.42;95.49;103789.78;4201816;28;20510;-78
2023/02/05 00:36:42;;;;;;;11.13;7.65;;;8.40;99.90;;;7.40;95.26;103783.75;4201465;28;20029;-78
2023/02/05 00:38:44;;;;;;;11.60;7.35;;;8.30;99.90;;;7.44;95.80;103797.59;4218048;28;20462;-78
2023/02/05 00:40:45;;;;;;;16.17;7.38;;;8.40;99.90;;;7.37;96.32;103791.75;4201635;28;20025;-79
2023/02/05 00:42:46;;;;;;;9.77;6.28;;;8.30;99.90;;;7.45;95.67;103794.91;4201768;28;20028;-79
2023/02/05 00:44:47;;;;;;;11.40;7.15;;;8.30;99.90;;;7.38;95.77;103787.34;4201960;28;20016;-79
2023/02/05 00:46:48;;;;;;;9.20;6.15;;;8.30;99.90;;;7.50;96.44;103808.69;4202351;28;20020;-78
2023/02/05 00:48:49;;;;;;;11.85;6.95;;;8.30;99.90;;;7.50;95.88;103808.69;4203005;28;20036;-78
2023/02/05 00:50:51;;;;;;;10.35;7.28;;;8.40;99.90;;;7.42;95.36;103797.66;4201629;28;20062;-78
2023/02/05 00:52:52;;;;;;;11.65;7.25;;;8.30;99.90;;;7.50;96.16;103799.97;4201473;28;20043;-78
2023/02/05 00:54:53;;;;;;;9.73;6.88;;;8.40;99.90;;;7.52;96.11;103800.78;4197646;28;20024;-78
2023/02/05 00:56:53;;;;;;;11.50;7.03;;;8.30;99.90;;;7.42;96.15;103789.78;4235056;28;20031;-78
2023/02/05 00:58:56;;;;;;;12.38;6.82;;;8.40;99.90;;;7.39;96.09;103776.78;4201132;28;20419;-78
2023/02/05 01:00:57;;;;;;;12.20;7.25;;;8.40;99.90;;;7.40;96.18;103775.88;4202330;28;20017;-78
2023/02/05 01:02:59;;;;;;;10.10;6.68;;;8.40;99.90;;;7.39;96.09;103771.50;4201361;28;20032;-78
2023/02/05 01:04:59;;;;;;;10.82;7.45;;;8.40;99.90;;;7.42;96.37;103779.28;4202369;28;20028;-78
2023/02/05 01:07:00;;;;;;;8.50;7.00;;;8.40;99.90;;;7.44;96.46;103773.94;4202338;28;20376;-78
2023/02/05 01:09:02;;;;;;;11.70;6.75;;;8.40;99.90;;;7.50;96.62;103785.06;4202424;28;20024;-79
2023/02/05 01:11:08;;;;;;;11.60;7.10;;;8.40;99.90;;;7.55;96.50;103790.16;4200924;28;20044;-78
2023/02/05 01:13:09;;;;;;;8.73;5.90;;;8.40;99.90;;;7.52;96.57;103778.00;4202136;28;20033;-78
2023/02/05 01:15:13;;;;;;;12.52;6.95;;;8.40;99.90;;;7.54;96.59;103783.16;4184791;28;20550;-78
2023/02/05 01:17:13;;;;;;;10.93;7.28;;;8.40;99.90;;;7.52;96.80;103792.91;4202041;28;20032;-78
2023/02/05 01:19:14;;;;;;;10.45;6.38;;;8.40;99.90;;;7.46;96.87;103785.25;4202274;28;20042;-78
2023/02/05 01:21:15;;;;;;;12.48;6.20;;;8.40;99.90;;;7.41;96.90;103777.56;4202126;28;20039;-78
2023/02/05 01:23:16;;;;;;;12.38;7.55;;;8.40;99.90;;;7.43;96.93;103781.00;4202358;28;20029;-78
2023/02/05 01:25:17;;;;;;;12.02;6.53;;;8.40;99.90;;;7.51;96.97;103788.56;4202326;28;20032;-78
2023/02/05 01:27:18;;;;;;;8.55;6.20;;;8.40;99.90;;;7.44;97.31;103787.94;4184421;28;20452;-79
2023/02/05 01:29:19;;;;;;;12.18;7.32;;;8.40;99.90;;;7.41;97.56;103774.94;4200826;28;20039;-78
2023/02/05 01:31:21;;;;;;;9.80;6.40;;;8.40;99.90;;;7.40;97.80;103769.75;4200718;28;20403;-78
2023/02/05 01:33:21;;;;;;;8.32;6.32;;;8.30;99.90;;;7.43;98.17;103769.63;4200943;28;20024;-78
2023/02/05 01:35:22;;;;;;;8.73;5.95;;;8.30;99.90;;;7.40;97.82;103765.34;4200744;28;20074;-78
2023/02/05 01:37:23;;;;;;;9.63;6.72;;;8.40;99.90;;;7.45;98.25;103773.91;4200983;28;20032;-78
2023/02/05 01:39:24;;;;;;;10.38;7.15;;;8.30;99.90;;;7.48;99.23;103772.91;4200832;28;20116;-78
2023/02/05 01:41:25;;;;;;;10.23;6.30;;;8.30;99.90;;;7.41;99.04;103751.28;4200730;28;20475;-78
2023/02/05 01:43:26;;;;;;;10.00;5.97;;;8.30;99.90;;;7.37;99.44;103739.22;4201925;28;20107;-78
2023/02/05 01:45:49;;;;;;;9.23;6.35;;;8.30;99.90;;;7.47;99.90;103745.78;4200625;28;20027;-78
2023/02/05 01:47:55;;;;;;;10.20;7.18;;;8.30;99.90;;;7.38;100.00;103754.03;4201924;28;20047;-78
2023/02/05 01:49:57;;;;;;;15.32;6.78;;;8.30;99.90;;;7.35;100.00;103750.72;4200679;28;20028;-78
2023/02/05 01:52:05;;;;;;;10.82;7.32;;;8.30;99.90;;;7.31;100.00;103744.72;4184176;28;20434;-78
2023/02/05 01:54:07;;;;;;;13.85;7.18;;;8.30;99.90;;;7.31;100.00;103741.22;4200808;28;20051;-79
2023/02/05 01:56:23;;;;;;;9.70;5.93;;;8.30;99.90;;;7.30;100.00;103743.00;4200585;28;20025;-78
2023/02/05 01:58:29;;;;;;;11.68;7.00;;;8.30;99.90;;;7.38;100.00;103750.59;4200497;28;20403;-78
2023/02/05 02:00:30;;;;;;;11.40;6.63;;;8.30;99.90;;;7.31;100.00;103746.50;4200841;28;20028;-78
2023/02/05 02:02:33;;;;;;;11.98;6.88;;;8.30;99.90;;;7.27;100.00;103737.88;4200510;28;20039;-78
2023/02/05 02:04:43;;;;;;;11.52;7.53;;;8.20;99.90;;;7.37;100.00;103752.34;4201677;28;20024;-78
2023/02/05 02:06:43;;;;;;;11.48;7.30;;;8.20;99.90;;;7.32;100.00;103751.66;4201975;28;20028;-78
2023/02/05 02:08:44;;;;;;;11.77;6.68;;;8.20;99.90;;;7.27;100.00;103737.00;4200646;28;20060;-78
2023/02/05 02:10:47;;;;;;;11.65;7.75;;;8.20;99.90;;;7.32;100.00;103750.84;4201792;28;20044;-78
2023/02/05 02:12:49;;;;;;;12.20;7.68;;;8.20;99.90;;;7.24;100.00;103738.00;4183711;28;20048;-78
2023/02/05 02:14:56;;;;;;;17.52;7.43;;;8.20;99.90;;;7.33;100.00;103737.63;4200565;28;20543;-78
2023/02/05 02:16:59;;;;;;;13.52;9.30;;;8.20;99.90;;;7.33;100.00;103742.88;4200386;28;20462;-78
2023/02/05 02:19:02;;;;;;;12.20;8.00;;;8.20;99.90;;;7.32;100.00;103749.03;4200389;28;20089;-78
2023/02/05 02:21:39;;;;;;;15.68;9.80;;;8.20;99.90;;;7.20;100.00;103744.28;4201433;28;20021;-78
2023/02/05 02:24:01;;;;;;;13.88;7.55;;;8.20;99.90;;;7.27;100.00;103761.50;4184372;28;20033;-79
2023/02/05 02:26:27;;;;;;;13.02;7.45;;;8.20;99.90;;;7.24;100.00;103753.75;4201487;28;20029;-79
2023/02/05 02:28:35;;;;;;;16.50;8.27;;;8.10;99.90;;;7.21;100.00;103749.47;4200447;28;20028;-79
2023/02/05 02:30:53;;;;;;;13.15;7.88;;;8.10;99.90;;;7.21;100.00;103754.72;4200451;28;20094;-78
2023/02/05 02:33:18;;;;;;;13.05;6.03;;;8.10;99.90;;;7.09;100.00;103743.84;4201761;28;20033;-78
2023/02/05 02:35:53;;;;;;;7.32;5.50;;;8.10;99.90;;;7.04;100.00;103744.03;4184596;28;20028;-78
2023/02/05 02:38:57;;;;;;;8.25;5.45;;;8.00;99.90;;;7.09;100.00;103759.59;4200031;28;20048;-78
2023/02/05 02:41:23;;;;;;;12.85;6.15;;;8.00;99.90;;;7.09;100.00;103755.22;4158504;28;20503;-78
2023/02/05 02:43:36;;;;;;;11.65;6.28;;;8.00;99.90;;;7.09;100.00;103757.84;4200245;28;20086;-78
2023/02/05 02:46:02;;;;;;;14.88;6.55;;;8.00;99.90;;;7.05;100.00;103758.84;4200412;28;20025;-78
2023/02/05 02:48:06;;;;;;;10.13;6.22;;;8.00;99.90;;;7.09;100.00;103772.72;4200732;28;20483;-78
2023/02/05 02:50:34;;;;;;;11.40;6.72;;;8.00;99.90;;;6.99;100.00;103753.00;4200159;28;20028;-79
2023/02/05 02:52:39;;;;;;;14.35;7.75;;;8.00;99.90;;;6.97;100.00;103776.69;4200626;28;20040;-78
2023/02/05 02:54:45;;;;;;;13.65;7.63;;;8.00;99.90;;;7.05;100.00;103776.38;4200355;28;20032;-79
2023/02/05 02:56:48;;;;;;;15.05;6.93;;;7.90;99.90;;;6.99;100.00;103769.59;4199148;28;20036;-78
2023/02/05 02:58:55;;;;;;;14.55;7.70;;;8.00;99.90;;;7.01;100.00;103762.53;4189295;28;20614;-78
2023/02/05 03:00:59;;;;;;;14.77;7.03;;;8.00;99.90;;;6.99;100.00;103753.84;4199832;28;20032;-78
2023/02/05 03:03:06;;;;;;;13.27;7.10;;;8.00;99.90;;;7.10;100.00;103758.69;4201304;28;20028;-78
2023/02/05 03:05:21;;;;;;;9.85;6.60;;;8.00;99.90;;;7.02;100.00;103747.63;4187408;28;20029;-78
2023/02/05 03:07:29;;;;;;;8.00;5.47;;;8.00;99.90;;;7.07;100.00;103756.19;4200431;28;20023;-78
2023/02/05 03:09:47;;;;;;;10.55;6.03;;;8.00;99.90;;;7.05;100.00;103744.88;4202989;28;20376;-78
2023/02/05 03:11:48;;;;;;;11.73;5.88;;;8.00;99.90;;;7.09;100.00;103752.59;4191650;28;20047;-78
2023/02/05 03:13:49;;;;;;;7.32;5.60;;;8.00;99.90;;;7.20;100.00;103768.75;4204048;28;20036;-78
2023/02/05 03:15:50;;;;;;;12.20;5.82;;;8.10;99.90;;;7.19;100.00;103769.69;4202858;28;20040;-79
2023/02/05 03:17:53;;;;;;;9.05;5.90;;;8.10;99.90;;;7.20;100.00;103766.13;4203016;28;20034;-78
2023/02/05 03:20:18;;;;;;;11.23;6.00;;;8.10;99.90;;;7.06;100.00;103754.47;4204156;28;20111;-78
2023/02/05 03:22:19;;;;;;;;;;;8.10;99.90;;;7.17;100.00;103781.16;4203336;28;20080;-78
2023/02/05 03:24:20;;;;;;;10.68;6.22;;;8.10;99.90;;;7.09;100.00;103770.09;4203955;28;19920;-79
2023/02/05 03:26:22;;;;;;;8.93;6.22;;;8.10;99.90;;;7.19;100.00;103793.31;4204215;28;20032;-78
2023/02/05 03:28:23;;;;;;;10.02;6.22;;;8.10;99.90;;;7.21;100.00;103795.88;4203988;28;20021;-78
2023/02/05 03:30:45;;;;;;;11.68;6.00;;;8.10;99.90;;;7.22;100.00;103793.22;4202865;28;20082;-79
2023/02/05 03:32:51;;;;;;;10.25;5.55;;;8.10;99.90;;;7.22;100.00;103795.84;4186731;28;20427;-79
2023/02/05 03:35:19;;;;;;;10.80;6.10;;;8.10;99.90;;;7.17;100.00;103778.53;4204026;28;20039;-78
2023/02/05 03:37:53;;;;;;;9.93;5.50;;;8.10;99.90;;;7.16;100.00;103782.94;4186624;28;20479;-79
2023/02/05 03:40:27;;;;;;;11.88;6.38;;;8.10;99.90;;;7.18;100.00;103785.50;4202832;28;20029;-78
2023/02/05 03:42:34;;;;;;;9.23;6.30;;;8.10;99.90;;;7.18;100.00;103796.00;4203794;28;20556;-78
2023/02/05 03:45:12;;;;;;;10.98;6.85;;;8.10;99.90;;;7.20;100.00;103800.25;4203756;28;20080;-78
2023/02/05 03:47:29;;;;;;;13.23;6.05;;;8.00;99.90;;;7.19;100.00;103808.22;4203552;28;20028;-79
2023/02/05 03:49:41;;;;;;;11.70;5.82;;;8.00;99.90;;;7.17;100.00;103810.03;4202598;28;20511;-78
2023/02/05 03:52:03;;;;;;;12.85;6.63;;;8.00;99.90;;;7.07;100.00;103795.56;4218802;28;20038;-78
2023/02/05 03:54:20;;;;;;;14.23;5.97;;;8.00;99.90;;;7.10;100.00;103798.94;4210642;28;20021;-78
2023/02/05 03:56:56;;;;;;;9.50;5.78;;;8.00;99.90;;;7.07;100.00;103792.94;4198276;28;20156;-78
2023/02/05 03:58:58;;;;;;;8.35;5.85;;;8.00;99.90;;;7.08;100.00;103808.59;4202513;28;20376;-78
2023/02/05 04:00:59;;;;;;;13.02;6.15;;;8.00;99.90;;;7.07;100.00;103798.19;4201861;28;20029;-78
2023/02/05 04:03:00;;;;;;;7.75;5.97;;;8.00;99.90;;;7.05;100.00;103811.34;4202083;28;20426;-79
2023/02/05 04:05:01;;;;;;;12.13;6.20;;;8.00;99.90;;;7.07;100.00;103806.91;4202777;28;20051;-79
2023/02/05 04:07:02;;;;;;;10.68;6.40;;;8.00;99.90;;;7.06;100.00;103813.06;4203423;28;20060;-79
2023/02/05 04:09:04;;;;;;;11.93;6.75;;;8.00;99.90;;;7.06;100.00;103802.56;4202125;28;20103;-79
2023/02/05 04:11:06;;;;;;;9.02;5.88;;;8.00;99.90;;;7.15;100.00;103820.59;4201830;28;20072;-78
2023/02/05 04:13:06;;;;;;;10.45;5.85;;;8.00;99.90;;;7.18;100.00;103828.34;4201762;28;20048;-79
2023/02/05 04:15:09;;;;;;;13.82;6.45;;;8.00;99.90;;;7.13;100.00;103811.94;4202051;28;20036;-79
2023/02/05 04:17:11;;;;;;;15.25;7.25;;;8.00;99.90;;;7.10;100.00;103805.94;4202972;28;20035;-78
2023/02/05 04:19:12;;;;;;;10.20;6.22;;;8.10;99.90;;;7.07;100.00;103804.28;4201878;28;20028;-78
2023/02/05 04:21:13;;;;;;;16.85;6.97;;;8.00;99.90;;;7.07;100.00;103813.94;4201831;28;20037;-79
2023/02/05 04:23:14;;;;;;;10.30;6.18;;;8.00;99.90;;;7.04;100.00;103819.28;4202105;28;20051;-78
2023/02/05 04:25:15;;;;;;;11.40;5.95;;;8.00;99.90;;;7.18;100.00;103827.50;4185152;28;20028;-78
2023/02/05 04:27:15;;;;;;;15.68;6.13;;;8.10;99.90;;;7.13;100.00;103834.69;4201172;28;20118;-78
2023/02/05 04:29:16;;;;;;;11.75;6.53;;;8.10;99.90;;;7.12;100.00;103838.22;4209214;28;20020;-78
2023/02/05 04:31:17;;;;;;;10.35;6.60;;;8.00;99.90;;;7.07;100.00;103840.19;4202832;28;20032;-78
2023/02/05 04:33:18;;;;;;;9.77;6.15;;;8.00;99.90;;;7.06;100.00;103833.22;4202867;28;20063;-78
2023/02/05 04:35:19;;;;;;;9.80;6.15;;;8.00;99.90;;;7.13;100.00;103839.94;4202859;28;20039;-78
2023/02/05 04:37:20;;;;;;;9.77;6.00;;;8.00;99.90;;;7.08;100.00;103828.75;4202724;28;20440;-78
2023/02/05 04:39:21;;;;;;;15.95;7.55;;;8.00;99.90;;;7.12;100.00;103838.22;4201641;28;20024;-79
2023/02/05 04:41:22;;;;;;;8.73;6.13;;;8.00;99.90;;;7.15;100.00;103849.47;4201745;28;20031;-78
2023/02/05 04:43:22;;;;;;;14.25;8.15;;;8.00;99.90;;;7.20;100.00;103865.91;4201608;28;20028;-78
2023/02/05 04:45:29;;;;;;;13.23;7.80;;;8.00;99.90;;;7.13;100.00;103856.56;4201388;28;20033;-78
2023/02/05 04:47:31;;;;;;;12.48;7.53;;;8.00;99.90;;;7.10;100.00;103872.44;4201362;28;20025;-78
2023/02/05 04:49:33;;;;;;;12.98;8.23;;;8.00;99.90;;;7.10;100.00;103858.44;4201654;28;20052;-79
2023/02/05 04:51:34;;;;;;;10.23;7.00;;;8.00;99.90;;;7.06;100.00;103852.44;4201359;28;20029;-78
2023/02/05 04:53:37;;;;;;;9.77;6.55;;;8.00;99.90;;;7.01;100.00;103854.41;4202374;28;20036;-78
2023/02/05 04:55:37;;;;;;;9.90;6.03;;;8.00;99.90;;;7.14;100.00;103884.50;4202603;28;20430;-78
2023/02/05 04:57:38;;;;;;;10.05;7.45;;;8.00;99.90;;;7.15;100.00;103875.72;4201400;28;20040;-79
2023/02/05 04:59:40;;;;;;;15.63;7.05;;;8.00;99.90;;;7.14;100.00;103881.00;4202471;28;20024;-78
2023/02/05 05:01:40;;;;;;;12.13;7.05;;;8.00;99.90;;;7.01;100.00;103862.28;4200400;28;20032;-78
2023/02/05 05:03:42;;;;;;;13.40;7.15;;;8.00;99.90;;;7.07;100.00;103866.44;4201853;28;20103;-78
2023/02/05 05:05:43;;;;;;;9.52;7.32;;;8.00;99.90;;;7.06;100.00;103862.09;4201947;28;20017;-78
2023/02/05 05:07:44;;;;;;;12.77;7.28;;;8.00;99.90;;;7.04;100.00;103851.66;4200889;28;20048;-78
2023/02/05 05:09:44;;;;;;;10.73;6.85;;;8.00;99.90;;;7.08;100.00;103855.00;4200941;28;20024;-78
2023/02/05 05:11:45;;;;;;;13.45;6.63;;;8.00;99.90;;;7.13;100.00;103877.56;4201173;28;20040;-78
2023/02/05 05:13:48;;;;;;;11.15;6.30;;;8.00;99.90;;;7.01;100.00;103845.66;4202181;28;20039;-78
2023/02/05 05:15:55;;;;;;;11.07;6.75;;;8.00;99.90;;;7.09;100.00;103859.34;4200787;28;20024;-78
2023/02/05 05:17:56;;;;;;;10.20;6.53;;;8.00;99.90;;;7.16;100.00;103866.94;4200856;28;20113;-78
2023/02/05 05:19:56;;;;;;;10.90;6.80;;;8.00;99.90;;;7.11;100.00;103860.13;4202231;28;20488;-78
2023/02/05 05:21:58;;;;;;;9.90;6.20;;;8.00;99.90;;;7.05;100.00;103834.97;4184483;28;20032;-78
2023/02/05 05:23:59;;;;;;;11.88;6.78;;;8.00;99.90;;;7.09;100.00;103844.44;4200818;28;20035;-78
2023/02/05 05:26:05;;;;;;;11.43;7.30;;;8.00;99.90;;;7.12;100.00;103846.97;4202124;28;20032;-78
2023/02/05 05:28:06;;;;;;;14.88;7.32;;;8.00;99.90;;;7.08;100.00;103842.72;4202163;28;20519;-78
2023/02/05 05:30:08;;;;;;;9.20;6.20;;;8.00;99.90;;;7.07;100.00;103834.94;4202076;28;20040;-78
2023/02/05 05:32:09;;;;;;;10.15;6.57;;;8.00;99.90;;;7.14;100.00;103841.63;4200193;28;20111;-78
2023/02/05 05:34:10;;;;;;;11.13;7.30;;;8.00;99.90;;;7.09;100.00;103830.47;4201904;28;20526;-78
2023/02/05 05:36:12;;;;;;;13.82;6.97;;;8.10;99.90;;;7.10;100.00;103819.94;4200953;28;20020;-78
2023/02/05 05:38:13;;;;;;;7.85;5.97;;;8.00;99.90;;;7.05;100.00;103824.47;4202055;28;20028;-78
2023/02/05 05:44:53;;;;;;;8.75;5.60;;;8.00;99.90;;;7.04;100.00;103824.53;4202215;28;20042;-78
2023/02/05 05:46:54;;;;;;;9.40;6.22;;;8.00;99.90;;;7.01;100.00;103825.53;4200432;28;20021;-78
2023/02/05 05:48:57;;;;;;;12.20;6.32;;;8.00;99.90;;;7.01;100.00;103828.16;4202154;28;20035;-78
2023/02/05 05:50:58;;;;;;;8.43;6.30;;;8.00;99.90;;;6.99;100.00;103829.13;4201793;28;20103;-78
2023/02/05 05:52:59;;;;;;;8.90;6.30;;;8.00;99.90;;;7.01;100.00;103836.03;4200143;28;20434;-78
2023/02/05 05:55:00;;;;;;;9.50;5.80;;;8.00;99.90;;;7.01;100.00;103829.91;4201683;28;20032;-78
2023/02/05 05:57:01;;;;;;;10.52;5.85;;;8.00;99.90;;;7.07;100.00;103845.44;4200931;28;20078;-78
2023/02/05 05:59:02;;;;;;;9.40;5.95;;;7.90;99.90;;;7.06;100.00;103846.34;4200702;28;20059;-78
2023/02/05 06:01:05;;;;;;;7.10;5.30;;;7.90;99.90;;;6.95;100.00;103832.75;4200436;28;20078;-78
2023/02/05 06:03:06;;;;;;;11.15;5.20;;;7.90;99.90;;;6.96;100.00;103837.13;4200445;28;20052;-78
2023/02/05 06:05:07;;;;;;;8.77;5.97;;;7.90;99.90;;;6.95;100.00;103836.25;4234241;28;20023;-78
2023/02/05 06:07:08;;;;;;;8.05;5.32;;;7.90;99.90;;;6.87;100.00;103834.81;4202117;28;20502;-78
2023/02/05 06:09:09;;;;;;;9.15;6.15;;;7.90;99.90;;;6.89;100.00;103840.88;4201303;28;20029;-79
2023/02/05 06:11:10;;;;;;;6.50;4.47;;;7.90;99.90;;;6.98;100.00;103856.28;4200116;28;20104;-78
2023/02/05 06:13:11;;;;;;;8.13;5.20;;;7.80;99.90;;;6.89;100.00;103840.88;4213542;28;20066;-78
2023/02/05 06:15:12;;;;;;;6.32;5.00;;;7.80;99.90;;;6.82;100.00;103829.72;4191952;28;20017;-78
2023/02/05 06:17:13;;;;;;;21.45;6.72;;;7.80;99.90;;;6.97;100.00;103857.16;4201654;28;20502;-78
2023/02/05 06:19:14;;;;;;;14.77;6.90;;;7.80;99.90;;;6.87;100.00;103840.91;4201638;28;20028;-78
2023/02/05 06:21:14;;;;;;;10.85;6.75;;;7.80;99.90;;;6.92;100.00;103848.63;4200561;28;20055;-78
2023/02/05 06:23:15;;;;;;;11.63;6.90;;;7.80;99.90;;;7.00;100.00;103859.69;4201557;28;20028;-78
2023/02/05 06:25:16;;;;;;;13.48;7.18;;;7.80;99.90;;;6.96;100.00;103845.00;4200560;28;20032;-78
2023/02/05 06:27:17;;;;;;;14.13;7.68;;;7.90;99.90;;;7.06;100.00;103867.34;4200546;28;20480;-78
2023/02/05 06:29:18;;;;;;;9.13;6.65;;;7.90;99.90;;;7.10;100.00;103871.56;4201550;28;20047;-78
2023/02/05 06:31:19;;;;;;;10.60;6.97;;;8.00;99.90;;;7.11;100.00;103868.88;4201099;28;20423;-78
2023/02/05 06:33:20;;;;;;;13.27;6.97;;;8.00;99.90;;;7.00;100.00;103850.06;4201309;28;20032;-78
2023/02/05 06:35:21;;;;;;;14.00;6.82;;;8.00;99.90;;;6.98;100.00;103856.28;4201429;28;20056;-78
2023/02/05 06:37:24;;;;;;;9.65;6.40;;;8.00;99.90;;;7.00;100.00;103859.69;4200132;28;20032;-78
2023/02/05 06:39:25;;;;;;;8.67;5.97;;;8.00;99.90;;;7.04;100.00;103872.66;4200485;28;20055;-78
2023/02/05 06:41:26;;;;;;;12.15;6.07;;;8.00;99.90;;;7.06;100.00;103867.34;4200241;28;20025;-79
2023/02/05 06:43:27;;;;;;;10.05;6.40;;;8.00;99.90;;;7.07;100.00;103874.31;4202813;28;20055;-78
2023/02/05 06:45:28;;;;;;;8.90;5.75;;;8.00;99.90;;;7.15;100.00;103891.47;4186412;28;20060;-78
2023/02/05 06:47:28;;;;;;;12.55;6.72;;;8.00;99.90;;;7.05;100.00;103869.09;4204826;28;20016;-79
2023/02/05 06:49:29;;;;;;;9.48;6.43;;;8.00;99.90;;;7.09;100.00;103873.34;4204596;28;20105;-78
2023/02/05 06:51:30;;;;;;;13.20;6.90;;;8.00;99.90;;;7.05;100.00;103873.47;4204256;28;20044;-78
2023/02/05 06:53:31;;;;;;;10.93;7.13;;;8.00;99.90;;;7.02;100.00;103858.72;4203141;28;20581;-78
2023/02/05 06:55:32;;;;;;;8.95;6.55;;;8.00;99.90;;;7.09;100.00;103869.84;4203367;28;20107;-78
2023/02/05 06:57:33;;;;;;;10.35;6.65;;;8.00;99.90;;;7.10;100.00;103866.31;4204467;28;20555;-78
2023/02/05 06:59:34;;;;;;;14.00;7.78;;;8.10;99.90;;;7.13;100.00;103881.94;4204340;28;20028;-78
2023/02/05 07:01:35;;;;;;;15.02;7.05;;;8.10;99.90;;;7.09;100.00;103865.44;4202769;28;20138;-78
2023/02/05 07:03:36;;;;;;;9.90;6.50;;;8.10;99.90;;;7.20;100.00;103886.91;4204378;28;20027;-78
2023/02/05 07:05:36;;;;;;;13.68;7.72;;;8.10;99.90;;;7.14;100.00;103874.00;4236860;28;20421;-78
2023/02/05 07:07:38;;;;;;;10.02;6.70;;;8.10;99.90;;;7.21;100.00;103893.00;4204242;28;20020;-78
2023/02/05 07:09:39;;;;;;;10.55;6.43;;;8.10;99.90;;;7.14;100.00;103886.28;4202902;28;20494;-78
2023/02/05 07:11:40;;;;;;;11.57;6.88;;;8.10;99.90;;;7.11;100.00;103887.25;4203126;28;20052;-78
2023/02/05 07:13:41;;;;;;;11.57;6.05;;;8.10;99.90;;;7.19;100.00;103900.97;4204097;28;20039;-78
2023/02/05 07:15:41;;;;;;;11.25;7.20;;;8.10;99.90;;;7.17;100.00;103888.78;4204088;28;20468;-78
2023/02/05 07:17:43;;;;;;;12.80;6.93;;;8.10;99.90;;;7.22;100.00;103907.88;4203998;28;20059;-78
2023/02/05 07:19:43;;;;;;;10.05;6.30;;;8.10;99.90;;;7.26;100.00;103904.19;4186328;28;20508;-78
2023/02/05 07:21:44;;;;;;;8.85;6.47;;;8.10;99.90;;;7.18;100.00;103891.38;4204089;28;20024;-78
2023/02/05 07:23:46;;;;;;;9.70;6.32;;;8.10;99.90;;;7.16;100.00;103897.59;4202774;28;20123;-78
2023/02/05 07:25:46;;;;;;;8.60;5.88;;;8.10;99.90;;;7.11;100.00;103894.25;4186244;28;20092;-78
2023/02/05 07:27:47;;;;;;;11.00;6.75;;;8.10;99.90;;;7.15;100.00;103899.34;4219537;28;20113;-78
2023/02/05 07:29:48;;;;;;;12.00;7.20;;;8.10;99.90;;;7.15;100.00;103895.88;4204192;28;20476;-78
2023/02/05 07:31:50;;;;;;;10.30;6.22;;;8.10;99.90;;;7.15;100.00;103893.25;4202640;28;20028;-78
2023/02/05 07:33:51;;;;;;;8.95;6.45;;;8.10;99.90;;;7.12;100.00;103880.22;4202506;28;20079;-78
2023/02/05 07:35:53;;;;;;;8.80;6.70;;;8.10;99.90;;;7.25;100.00;103902.50;4202852;28;20500;-78
2023/02/05 07:37:54;;;;;;;12.25;7.38;;;8.10;99.90;;;7.26;100.00;103900.72;4219545;28;20114;-78
2023/02/05 07:39:55;;;;;;;9.45;5.78;;;8.10;99.90;;;7.28;100.00;103918.13;4203774;28;20043;-78
2023/02/05 07:41:56;;;;;;;8.35;5.43;;;8.10;99.90;;;7.19;100.00;103910.59;4203643;28;20021;-78
2023/02/05 07:43:56;;;;;;;11.45;6.28;;;8.10;99.90;;;7.20;100.00;103912.28;4211086;28;20036;-79
2023/02/05 07:46:01;;;;;;;9.30;5.53;;;8.10;99.90;;;7.18;100.00;103899.25;4203564;28;20021;-78
2023/02/05 07:48:01;;;;;;;10.35;6.22;;;8.10;99.90;;;7.14;100.00;103897.63;4203919;28;20055;-78
2023/02/05 07:50:05;;;;;;;13.00;6.25;;;8.20;99.90;;;7.26;100.00;103919.94;4203612;28;20091;-78
2023/02/05 07:52:06;;;;;;;8.95;6.55;;;8.20;99.90;;;7.32;100.00;103917.09;4203805;28;20237;-78
2023/02/05 07:54:09;;;;;;;8.15;5.72;;;8.20;99.90;;;7.28;100.00;103907.63;4203265;28;20072;-78
2023/02/05 07:56:11;;;;;;;8.13;5.72;;;8.20;99.90;;;7.28;100.00;103912.88;4203429;28;20039;-78
2023/02/05 07:58:12;;;;;;;9.52;5.90;;;8.20;99.90;;;7.28;100.00;103896.28;4203189;28;20035;-78
2023/02/05 08:00:13;;;;;;;10.43;6.30;;;8.20;99.90;;;7.34;100.00;103903.91;4202542;28;20028;-78
2023/02/05 08:02:14;;;;;;;9.13;5.20;;;8.30;99.90;;;7.35;100.00;103901.22;4185319;28;20029;-78
2023/02/05 08:04:15;;;;;;;8.30;4.90;;;8.30;99.90;;;7.36;100.00;103897.69;4202244;28;20093;-78
2023/02/05 08:06:16;;;;;;;10.35;6.13;;;8.30;99.90;;;7.42;100.00;103899.22;4235820;28;20027;-78
2023/02/05 08:08:17;;;;;;;7.80;5.40;;;8.40;99.90;;;7.43;100.00;103904.44;4203399;28;20434;-78
2023/02/05 08:10:18;;;;;;;6.95;5.38;;;8.30;99.90;;;7.50;100.00;103923.41;4202768;28;20025;-78
2023/02/05 08:12:19;;;;;;;8.63;6.20;;;8.40;99.90;;;7.48;100.00;103915.59;4218341;28;20066;-78
2023/02/05 08:14:20;;;;;;;12.00;6.25;;;8.30;99.90;;;7.47;100.00;103919.13;4202812;28;20519;-79
2023/02/05 08:16:21;;;;;;;12.50;5.82;;;8.40;99.90;;;7.43;100.00;103901.81;4201274;28;20060;-79
2023/02/05 08:18:22;;;;;;;9.45;5.65;;;8.40;99.90;;;7.53;100.00;103918.03;4201779;28;20020;-79
2023/02/05 08:20:23;;;;;;;9.15;5.75;;;8.40;99.90;;;7.57;100.00;103922.28;4202738;28;20021;-79
2023/02/05 08:22:24;;;;;;;9.98;5.00;;;8.40;99.90;;;7.57;100.00;103924.91;4202696;28;20021;-78
2023/02/05 08:24:24;;;;;;;9.65;5.28;;;8.40;99.90;;;7.60;100.00;103925.66;4203012;28;20406;-79
2023/02/05 08:26:25;;;;;;;8.98;6.53;;;8.40;99.90;;;7.61;100.00;103924.75;4201047;28;20021;-78
2023/02/05 08:28:28;;;;;;;9.88;6.65;;;8.50;99.90;;;7.56;100.00;103910.91;4202168;28;20029;-78
2023/02/05 08:30:29;;;;;;;12.98;7.10;;;8.50;99.90;;;7.61;100.00;103906.34;4202733;28;20016;-79
2023/02/05 08:32:29;;;;;;;12.63;7.43;;;8.50;99.90;;;7.69;100.00;103921.81;4218974;28;20038;-78
2023/02/05 08:34:30;;;;;;;10.68;7.07;;;8.60;99.90;;;7.73;100.00;103919.00;4203241;28;20020;-78
2023/02/05 08:36:31;;;;;;;11.43;7.38;;;8.60;99.90;;;7.71;100.00;103907.69;4218602;28;20027;-78
2023/02/05 08:38:32;;;;;;;10.65;6.65;;;8.60;99.90;;;7.76;100.00;103899.63;4202854;28;20471;-78
2023/02/05 08:40:34;;;;;;;9.25;7.13;;;8.70;99.90;;;7.82;100.00;103904.66;4202592;28;20086;-78
2023/02/05 08:42:35;;;;;;;8.63;6.05;;;8.70;99.90;;;7.85;100.00;103898.41;4202961;28;20052;-78